Terminal Aerodrome Forecast
Issued by NWS

Home | Current Version | Previous Version | Text Only | Print | Product List | Glossary On
Versions: 1 2 3 4 5 6 7 8 9 10 11 12 13
000
FTUS46 KOTX 262331
TAFCOE
TAF
KCOE 262331Z 2700/2724 27006KT P6SM FEW080 BKN200
     FM270400 14005KT P6SM SCT150 BKN200
     FM271600 18009KT P6SM BKN150
     FM272100 23015G26KT P6SM BKN120 OVC150
      AMD LTD TO CLD VIS AND WIND=

USA.gov is the U.S. government's official web portal to all federal, state and local government web resources and services.